This is the latest recevied weather packets stored in our database for station/object F4ACR-10. If no packets are shown the sender has not sent any weather packets the latest 10 day(s).
| Time | Temp. | Humidity | Pressure | Rain* | Wind** | Luminosity | Snow |
|---|---|---|---|---|---|---|---|
| 1787570666 | 28.89° C | 45% | 1010.9 hPa | - | - | - | - |
| 1787570066 | 28.89° C | 43% | 1011.1 hPa | - | - | - | - |
| 1787569466 | 28.33° C | 43% | 1011.4 hPa | - | - | - | - |
| 1787568866 | 28.33° C | 43% | 1011.6 hPa | - | - | - | - |
| 1787568265 | 28.89° C | 41% | 1011.6 hPa | - | - | - | - |
| 1787567665 | 30.56° C | 36% | 1011.6 hPa | - | - | - | - |
| 1787567065 | 30° C | 38% | 1011.7 hPa | - | - | - | - |
| 1787566465 | 29.44° C | 38% | 1012 hPa | - | - | - | - |
| 1787565865 | 29.44° C | 40% | 1012 hPa | - | - | - | - |
| 1787565264 | 29.44° C | 39% | 1012.1 hPa | - | - | - | - |
| 1787564664 | 29.44° C | 38% | 1012.2 hPa | - | - | - | - |
| 1787564064 | 28.89° C | 40% | 1012.2 hPa | - | - | - | - |
| 1787563464 | 30° C | 38% | 1012.4 hPa | - | - | - | - |
| 1787562864 | 28.33° C | 40% | 1012.6 hPa | - | - | - | - |
| 1787562264 | 27.22° C | 44% | 1012.3 hPa | - | - | - | - |
| 1787561663 | 27.78° C | 43% | 1012.2 hPa | - | - | - | - |
| 1787561063 | 26.11° C | 44% | 1012.5 hPa | - | - | - | - |
| 1787560463 | 26.67° C | 43% | 1012.7 hPa | - | - | - | - |
| 1787559863 | 25.56° C | 47% | 1012.8 hPa | - | - | - | - |
| 1787559262 | 26.11° C | 44% | 1012.8 hPa | - | - | - | - |
| 1787558662 | 23.89° C | 50% | 1013.2 hPa | - | - | - | - |
| 1787558062 | 22.78° C | 52% | 1013.4 hPa | - | - | - | - |
| 1787557462 | 23.89° C | 47% | 1013.5 hPa | - | - | - | - |
| 1787556861 | 23.33° C | 50% | 1013.8 hPa | - | - | - | - |
| 1787556261 | 23.89° C | 47% | 1013.8 hPa | - | - | - | - |
* Rain since midnight (hover to see other rain measurements)
** Current wind speed in m/s (hover to see current wind gust speed)